createdAt,value
2022-11-27T00:00:08.451Z,115.07
2022-11-27T00:05:09.958Z,66.22
2022-11-27T00:10:12.259Z,68.15
2022-11-27T00:15:17.232Z,88.95
2022-11-27T00:20:18.978Z,32.58
2022-11-27T00:25:20.460Z,44.55
2022-11-27T00:30:22.082Z,38.90
2022-11-27T00:35:23.546Z,96.20
2022-11-27T00:40:25.037Z,17.55
2022-11-27T00:45:26.487Z,29.40
2022-11-27T00:50:31.592Z,16.90
2022-11-27T00:55:33.104Z,28.30
2022-11-27T01:00:34.654Z,25.00
2022-11-27T01:05:37.291Z,15.68
2022-11-27T01:10:38.731Z,13.25
2022-11-27T01:15:40.234Z,25.20
2022-11-27T01:20:41.694Z,24.17
2022-11-27T01:25:43.153Z,28.17
2022-11-27T01:30:44.689Z,21.67
2022-11-27T01:36:04.316Z,11.85
2022-11-27T01:41:17.746Z,15.98
2022-11-27T01:46:39.785Z,23.40
2022-11-27T01:51:46.936Z,58.75
2022-11-27T01:56:52.221Z,19.90
2022-11-27T02:01:53.904Z,55.05
2022-11-27T02:06:58.822Z,41.35
2022-11-27T02:12:24.895Z,43.03
2022-11-27T02:17:32.546Z,29.02
2022-11-27T02:22:49.285Z,21.48
2022-11-27T02:28:15.663Z,46.67
2022-11-27T02:33:21.135Z,130.50
2022-11-27T02:38:34.597Z,50.75
2022-11-27T02:43:44.985Z,142.68
2022-11-27T02:48:55.619Z,147.85
2022-11-27T02:54:02.439Z,149.48
2022-11-27T02:59:09.394Z,127.60
2022-11-27T03:04:16.563Z,71.38
2022-11-27T03:09:24.981Z,155.93
2022-11-27T03:14:26.541Z,64.13
2022-11-27T03:19:45.664Z,32.75
2022-11-27T03:24:49.926Z,21.40
2022-11-27T03:29:55.870Z,20.00
2022-11-27T03:34:57.813Z,16.13
2022-11-27T03:39:59.466Z,19.88
2022-11-27T03:45:36.491Z,31.50
2022-11-27T03:51:03.613Z,22.55
2022-11-27T03:56:16.933Z,26.88
2022-11-27T04:01:22.846Z,24.80
2022-11-27T04:06:24.431Z,25.20
2022-11-27T04:11:25.898Z,23.38
2022-11-27T04:16:27.679Z,31.88
2022-11-27T04:21:29.147Z,27.40
2022-11-27T04:26:30.632Z,23.75
2022-11-27T04:31:32.157Z,17.80
2022-11-27T04:36:39.004Z,20.30
2022-11-27T04:41:41.094Z,15.63
2022-11-27T04:46:43.062Z,13.75
2022-11-27T04:51:45.773Z,15.50
2022-11-27T04:56:47.189Z,23.08
2022-11-27T05:01:48.845Z,25.33
2022-11-27T05:06:50.314Z,25.58
2022-11-27T05:11:51.750Z,20.08
2022-11-27T05:16:55.080Z,19.35
2022-11-27T05:21:57.272Z,17.00
2022-11-27T05:26:58.699Z,18.92
2022-11-27T05:32:00.167Z,26.05
2022-11-27T05:37:01.683Z,62.38
2022-11-27T05:42:03.161Z,18.77
2022-11-27T05:47:04.755Z,35.65
2022-11-27T05:52:06.239Z,43.17
2022-11-27T05:57:07.738Z,39.75
2022-11-27T06:02:09.236Z,53.75
2022-11-27T06:07:10.751Z,41.13
2022-11-27T06:12:12.235Z,23.30
2022-11-27T06:17:16.471Z,54.58
2022-11-27T06:22:18.155Z,36.90
2022-11-27T06:27:19.690Z,95.53
2022-11-27T06:32:21.129Z,26.80
2022-11-27T06:37:22.869Z,48.63
2022-11-27T06:42:24.368Z,20.77
2022-11-27T06:47:25.863Z,17.73
2022-11-27T06:52:27.369Z,22.40
2022-11-27T06:57:28.779Z,16.65
2022-11-27T07:02:30.387Z,13.10
2022-11-27T07:07:31.993Z,11.15
2022-11-27T07:12:33.497Z,21.25
2022-11-27T07:17:34.956Z,21.17
2022-11-27T07:22:36.501Z,15.38
2022-11-27T07:27:37.994Z,14.00
2022-11-27T07:32:39.531Z,19.08
2022-11-27T07:37:40.919Z,17.58
2022-11-27T07:42:42.323Z,8.80
2022-11-27T07:47:43.723Z,15.15
2022-11-27T07:52:45.190Z,7.43
2022-11-27T07:57:47.004Z,9.23
2022-11-27T08:02:48.431Z,10.27
2022-11-27T08:07:49.947Z,18.30
2022-11-27T08:12:51.499Z,12.45
2022-11-27T08:17:53.073Z,10.93
2022-11-27T08:22:58.254Z,14.45
2022-11-27T08:28:03.983Z,8.05
2022-11-27T08:33:05.416Z,8.07
2022-11-27T08:38:06.862Z,7.25
2022-11-27T08:43:08.293Z,7.25
2022-11-27T08:48:09.710Z,8.73
2022-11-27T08:53:11.806Z,9.68
2022-11-27T08:58:13.761Z,7.63
2022-11-27T09:03:15.395Z,7.53
2022-11-27T09:08:20.386Z,8.15
2022-11-27T09:13:21.809Z,9.52
2022-11-27T09:18:23.770Z,8.90
2022-11-27T09:23:25.805Z,11.27
2022-11-27T09:28:31.975Z,10.40
2022-11-27T09:33:34.868Z,8.20
2022-11-27T09:38:37.121Z,9.63
2022-11-27T09:43:48.771Z,8.05
2022-11-27T09:48:51.715Z,10.88
2022-11-27T09:54:02.078Z,11.55
2022-11-27T09:59:10.240Z,11.23
2022-11-27T10:04:18.216Z,10.25
2022-11-27T10:09:34.531Z,9.57
2022-11-27T10:15:01.814Z,10.27
2022-11-27T10:20:03.176Z,11.93
2022-11-27T10:25:22.142Z,11.77
2022-11-27T10:30:24.129Z,13.57
2022-11-27T10:35:28.918Z,12.85
2022-11-27T10:41:48.376Z,13.55
2022-11-27T10:46:44.209Z,13.27
2022-11-27T10:51:45.652Z,14.90
2022-11-27T10:57:05.137Z,12.77
2022-11-27T11:02:24.412Z,12.32
2022-11-27T11:07:29.155Z,14.23
2022-11-27T11:12:30.673Z,9.85
2022-11-27T11:17:40.778Z,11.63
2022-11-27T11:22:47.234Z,9.55
2022-11-27T11:27:51.283Z,8.13
2022-11-27T11:33:01.790Z,13.65
2022-11-27T11:38:06.090Z,10.07
2022-11-27T11:43:25.735Z,13.57
2022-11-27T11:48:28.044Z,9.88
2022-11-27T11:53:41.058Z,13.68
2022-11-27T11:59:01.464Z,10.48
2022-11-27T12:04:39.052Z,11.52
2022-11-27T12:09:56.346Z,10.90
2022-11-27T12:15:27.435Z,14.55
2022-11-27T12:20:37.979Z,14.07
2022-11-27T12:26:03.817Z,16.15
2022-11-27T12:31:10.584Z,17.52
2022-11-27T12:36:46.276Z,15.85
2022-11-27T12:42:01.435Z,22.98
2022-11-27T12:47:10.783Z,16.92
2022-11-27T12:52:25.628Z,13.73
2022-11-27T12:57:40.773Z,14.57
2022-11-27T13:03:19.934Z,14.68
2022-11-27T13:08:34.746Z,12.27
2022-11-27T13:13:43.167Z,28.23
2022-11-27T13:18:55.081Z,13.75
2022-11-27T13:24:01.016Z,13.45
2022-11-27T13:29:21.725Z,14.20
2022-11-27T13:34:26.939Z,16.52
2022-11-27T13:39:36.096Z,19.77
2022-11-27T13:44:44.307Z,19.73
2022-11-27T13:49:47.960Z,16.65
2022-11-27T13:55:09.842Z,15.90
2022-11-27T14:00:16.287Z,17.58
2022-11-27T14:05:21.535Z,17.48
2022-11-27T14:10:29.155Z,19.50
2022-11-27T14:15:32.925Z,16.67
2022-11-27T14:20:38.025Z,18.90
2022-11-27T14:25:40.287Z,13.95
2022-11-27T14:30:48.114Z,16.15
2022-11-27T14:35:52.681Z,15.68
2022-11-27T14:41:06.627Z,14.10
2022-11-27T14:46:15.009Z,15.88
2022-11-27T14:51:19.164Z,11.77
2022-11-27T14:56:21.063Z,15.88
2022-11-27T15:01:26.697Z,12.07
2022-11-27T15:06:35.667Z,12.27
2022-11-27T15:11:55.140Z,13.43
2022-11-27T15:16:58.580Z,15.43
2022-11-27T15:22:00.936Z,13.23
2022-11-27T15:27:14.686Z,15.63
2022-11-27T15:32:26.892Z,16.33
2022-11-27T15:37:32.476Z,15.68
2022-11-27T15:42:36.967Z,19.13
2022-11-27T15:47:41.128Z,19.92
2022-11-27T15:52:43.201Z,14.55
2022-11-27T15:57:44.781Z,15.65
2022-11-27T16:02:46.277Z,20.88
2022-11-27T16:07:54.830Z,16.95
2022-11-27T16:12:59.749Z,16.92
2022-11-27T16:18:02.047Z,35.30
2022-11-27T16:23:03.867Z,23.60
2022-11-27T16:28:06.781Z,25.73
2022-11-27T16:33:08.285Z,15.05
2022-11-27T16:38:09.719Z,16.92
2022-11-27T16:43:11.156Z,12.63
2022-11-27T16:48:12.624Z,12.55
2022-11-27T16:53:14.049Z,16.42
2022-11-27T16:58:15.517Z,18.63
2022-11-27T17:03:16.986Z,16.95
2022-11-27T17:08:18.445Z,19.38
2022-11-27T17:13:19.913Z,16.50
2022-11-27T17:18:21.387Z,17.23
2022-11-27T17:23:22.813Z,21.45
2022-11-27T17:28:24.311Z,13.60
2022-11-27T17:33:25.745Z,15.95
2022-11-27T17:38:27.179Z,30.33
2022-11-27T17:43:30.529Z,30.40
2022-11-27T17:48:33.614Z,35.55
2022-11-27T17:53:35.567Z,31.23
2022-11-27T17:58:37.761Z,42.75
2022-11-27T18:03:39.286Z,25.00
2022-11-27T18:08:41.303Z,22.60
2022-11-27T18:13:43.501Z,19.38
2022-11-27T18:18:45.619Z,19.67
2022-11-27T18:29:09.999Z,14.98
2022-11-27T18:34:11.751Z,19.00
2022-11-27T18:39:13.534Z,18.83
2022-11-27T18:44:15.273Z,12.32
2022-11-27T18:49:16.765Z,20.73
2022-11-27T18:54:18.457Z,16.45
2022-11-27T18:59:19.934Z,25.88
2022-11-27T19:04:21.495Z,25.48
2022-11-27T19:09:22.937Z,28.17
2022-11-27T19:14:24.412Z,22.88
2022-11-27T19:20:04.520Z,26.02
2022-11-27T19:24:49.688Z,21.00
2022-11-27T19:29:51.218Z,19.65
2022-11-27T19:34:52.806Z,19.33
2022-11-27T19:39:54.255Z,30.33
2022-11-27T19:44:56.102Z,39.08
2022-11-27T19:49:57.587Z,29.67
2022-11-27T19:54:59.112Z,22.80
2022-11-27T20:00:00.720Z,23.95
2022-11-27T20:05:02.959Z,28.38
2022-11-27T20:10:05.700Z,20.92
2022-11-27T20:15:13.627Z,25.17
2022-11-27T20:20:16.919Z,33.60
2022-11-27T20:25:20.188Z,28.48
2022-11-27T20:30:21.812Z,31.58
2022-11-27T20:35:23.271Z,27.55
2022-11-27T20:40:25.931Z,31.55
2022-11-27T20:45:27.769Z,28.67
2022-11-27T20:50:29.270Z,25.08
2022-11-27T20:55:30.824Z,28.13
2022-11-27T21:00:32.325Z,30.13
2022-11-27T21:05:34.086Z,28.90
2022-11-27T21:10:35.547Z,29.02
2022-11-27T21:15:37.201Z,47.75
2022-11-27T21:20:42.367Z,32.10
2022-11-27T21:25:43.881Z,29.80
2022-11-27T21:30:45.369Z,39.95
2022-11-27T21:35:46.841Z,35.42
2022-11-27T21:40:48.304Z,29.13
2022-11-27T21:45:50.174Z,32.42
2022-11-27T21:50:51.694Z,26.13
2022-11-27T21:55:53.331Z,28.20
2022-11-27T22:00:54.835Z,22.92
2022-11-27T22:06:03.997Z,24.25
2022-11-27T22:11:07.411Z,28.73
2022-11-27T22:16:10.915Z,24.92
2022-11-27T22:21:13.948Z,24.58
2022-11-27T22:26:20.514Z,24.02
2022-11-27T22:31:28.095Z,22.33
2022-11-27T22:36:33.045Z,22.48
2022-11-27T22:41:36.944Z,21.30
2022-11-27T22:46:40.985Z,26.35
2022-11-27T22:51:42.549Z,24.40
2022-11-27T22:56:45.675Z,20.40
2022-11-27T23:01:48.493Z,23.70
2022-11-27T23:06:50.042Z,25.20
2022-11-27T23:11:51.893Z,28.63
2022-11-27T23:16:53.913Z,25.00
2022-11-27T23:21:55.434Z,21.55
2022-11-27T23:26:56.855Z,23.25
2022-11-27T23:31:58.362Z,26.92
2022-11-27T23:36:59.976Z,23.27
2022-11-27T23:42:02.240Z,20.35
2022-11-27T23:47:03.874Z,23.98
2022-11-27T23:52:05.587Z,26.20
2022-11-27T23:57:07.120Z,20.08
